Time;durP1;ratioP1;P1;durP2;ratioP2;P2;SDS_P1;SDS_P2;PMS_P1;PMS_P2;Temp;Humidity;BMP_temperature;BMP_pressure;BME280_temperature;BME280_humidity;BME280_pressure;Samples;Min_cycle;Max_cycle;Signal;HPM_P1;HPM_P2
2022/03/14 00:01:38;;;;;;;;;;;22.10;99.90;;;;;;5052290;28;19965;-69
2022/03/14 00:04:04;;;;;;;;;;;22.20;99.90;;;;;;5051622;28;19944;-71
2022/03/14 00:06:32;;;;;;;;;;;22.20;99.90;;;;;;5052208;28;20002;-71
2022/03/14 00:09:00;;;;;;;;;;;22.20;99.90;;;;;;5051768;28;19936;-70
2022/03/14 00:11:27;;;;;;;;;;;22.20;99.90;;;;;;5051870;28;19909;-71
2022/03/14 00:13:55;;;;;;;;;;;22.00;99.90;;;;;;5051794;28;19912;-71
2022/03/14 00:16:31;;;;;;;;;;;21.80;99.90;;;;;;5051532;28;19919;-70
2022/03/14 00:18:58;;;;;;;;;;;21.50;99.90;;;;;;5051938;28;20434;-70
2022/03/14 00:21:26;;;;;;;;;;;21.10;99.90;;;;;;5051743;28;19955;-70
2022/03/14 00:23:53;;;;;;;;;;;20.80;99.90;;;;;;5051934;28;19912;-69
2022/03/14 00:26:22;;;;;;;;;;;20.70;99.90;;;;;;5051747;28;19909;-71
2022/03/14 00:28:51;;;;;;;;;;;20.50;99.90;;;;;;5051843;28;19963;-72
2022/03/14 00:31:19;;;;;;;;;;;20.40;99.90;;;;;;5052131;28;19920;-73
2022/03/14 00:33:45;;;;;;;;;;;20.30;99.90;;;;;;5051773;28;20375;-72
2022/03/14 00:36:12;;;;;;;;;;;20.20;99.90;;;;;;5051634;28;19917;-71
2022/03/14 00:38:40;;;;;;;;;;;20.10;99.90;;;;;;5051536;28;20450;-72
2022/03/14 00:41:07;;;;;;;;;;;20.00;99.90;;;;;;5051863;28;20367;-72
2022/03/14 00:43:34;;;;;;;;;;;20.00;99.90;;;;;;5054905;28;19909;-72
2022/03/14 00:46:01;;;;;;;;;;;19.90;99.90;;;;;;5054747;28;19916;-71
2022/03/14 00:48:28;;;;;;;;;;;19.90;99.90;;;;;;5055095;28;19920;-71
2022/03/14 00:50:55;;;;;;;;;;;19.90;99.90;;;;;;5055032;28;19913;-71
2022/03/14 00:53:21;;;;;;;;;;;19.90;99.90;;;;;;5054952;28;19948;-72
2022/03/14 00:55:48;;;;;;;;;;;19.80;99.90;;;;;;5055345;28;19951;-70
2022/03/14 00:58:17;;;;;;;;;;;19.80;99.90;;;;;;5054630;28;19962;-71
2022/03/14 01:00:48;;;;;;;;;;;19.90;99.90;;;;;;5054967;28;19913;-72
2022/03/14 01:03:15;;;;;;;;;;;20.00;99.90;;;;;;5054933;28;20421;-72
2022/03/14 01:05:42;;;;;;;;;;;20.10;99.90;;;;;;5054749;28;19954;-71
2022/03/14 01:08:09;;;;;;;;;;;20.10;99.90;;;;;;5054753;28;19913;-71
2022/03/14 01:10:35;;;;;;;;;;;20.30;99.90;;;;;;5054772;28;19998;-73
2022/03/14 01:13:03;;;;;;;;;;;20.40;99.90;;;;;;5054674;28;19955;-71
2022/03/14 01:15:30;;;;;;;;;;;20.50;99.90;;;;;;5054517;28;19917;-71
2022/03/14 01:17:56;;;;;;;;;;;20.70;99.90;;;;;;5054749;28;19921;-72
2022/03/14 01:20:24;;;;;;;;;;;20.80;99.90;;;;;;5054437;28;19915;-73
2022/03/14 01:22:50;;;;;;;;;;;20.80;99.90;;;;;;5054368;28;19912;-71
2022/03/14 01:25:17;;;;;;;;;;;20.90;99.90;;;;;;5054191;28;20351;-73
2022/03/14 01:27:44;;;;;;;;;;;21.10;99.90;;;;;;5054252;28;20348;-72
2022/03/14 01:30:11;;;;;;;;;;;21.10;99.90;;;;;;5054061;28;19915;-73
2022/03/14 01:32:38;;;;;;;;;;;20.90;99.90;;;;;;5054322;28;19947;-72
2022/03/14 01:35:04;;;;;;;;;;;21.10;99.90;;;;;;5054076;28;19917;-72
2022/03/14 01:37:31;;;;;;;;;;;21.20;99.90;;;;;;5054134;28;20382;-71
2022/03/14 01:39:58;;;;;;;;;;;21.20;99.90;;;;;;5054208;28;19920;-71
2022/03/14 01:42:25;;;;;;;;;;;21.00;99.90;;;;;;5053900;28;19955;-71
2022/03/14 01:44:52;;;;;;;;;;;20.90;99.90;;;;;;5054065;28;19913;-71
2022/03/14 01:47:18;;;;;;;;;;;20.90;99.90;;;;;;5053774;28;20283;-71
2022/03/14 01:49:46;;;;;;;;;;;20.80;99.90;;;;;;5053970;28;19909;-72
2022/03/14 01:52:13;;;;;;;;;;;20.80;99.90;;;;;;5053390;28;19999;-72
2022/03/14 01:54:42;;;;;;;;;;;20.70;99.90;;;;;;5053759;28;19960;-72
2022/03/14 01:57:09;;;;;;;;;;;20.70;99.90;;;;;;5053881;28;19941;-72
2022/03/14 01:59:37;;;;;;;;;;;20.70;99.90;;;;;;5053904;28;19912;-72
2022/03/14 02:02:04;;;;;;;;;;;20.60;99.90;;;;;;5053568;28;19909;-72
2022/03/14 02:04:31;;;;;;;;;;;20.50;99.90;;;;;;5053730;28;19977;-72
2022/03/14 02:06:58;;;;;;;;;;;20.30;99.90;;;;;;5053686;28;20275;-72
2022/03/14 02:09:25;;;;;;;;;;;20.20;99.90;;;;;;5053599;28;20390;-71
2022/03/14 02:11:57;;;;;;;;;;;20.10;99.90;;;;;;5053385;28;19908;-72
2022/03/14 02:14:24;;;;;;;;;;;20.20;99.90;;;;;;5053080;28;19937;-72
2022/03/14 02:16:52;;;;;;;;;;;20.00;99.90;;;;;;5053297;28;19928;-72
2022/03/14 02:19:20;;;;;;;;;;;20.10;99.90;;;;;;5053452;28;19913;-71
2022/03/14 02:21:46;;;;;;;;;;;20.10;99.90;;;;;;5053076;28;20484;-72
2022/03/14 02:24:14;;;;;;;;;;;20.20;99.90;;;;;;5053368;28;20381;-72
2022/03/14 02:26:41;;;;;;;;;;;20.30;99.90;;;;;;5053378;28;19909;-73
2022/03/14 02:29:08;;;;;;;;;;;20.30;99.90;;;;;;5053306;28;19936;-73
2022/03/14 02:31:37;;;;;;;;;;;20.20;99.90;;;;;;5053282;28;19916;-72
2022/03/14 02:34:05;;;;;;;;;;;20.30;99.90;;;;;;5052878;28;19917;-71
2022/03/14 02:36:32;;;;;;;;;;;20.10;99.90;;;;;;5052746;28;19912;-72
2022/03/14 02:38:59;;;;;;;;;;;20.20;99.90;;;;;;5053136;28;19919;-73
2022/03/14 02:41:26;;;;;;;;;;;20.10;99.90;;;;;;5053001;28;19931;-72
2022/03/14 02:43:52;;;;;;;;;;;20.10;99.90;;;;;;5052991;28;19967;-72
2022/03/14 02:46:21;;;;;;;;;;;20.00;99.90;;;;;;5053068;28;20267;-70
2022/03/14 02:48:47;;;;;;;;;;;20.10;99.90;;;;;;5052746;28;19954;-71
2022/03/14 02:51:14;;;;;;;;;;;20.30;99.90;;;;;;5052916;28;19909;-72
2022/03/14 02:53:41;;;;;;;;;;;20.40;99.90;;;;;;5053048;28;20371;-70
2022/03/14 02:56:08;;;;;;;;;;;20.50;99.90;;;;;;5052670;28;19913;-71
2022/03/14 02:58:38;;;;;;;;;;;20.40;99.90;;;;;;5052760;28;19958;-72
2022/03/14 03:01:05;;;;;;;;;;;20.40;99.90;;;;;;5052996;28;19909;-73
2022/03/14 03:03:32;;;;;;;;;;;20.30;99.90;;;;;;5052732;28;19909;-72
2022/03/14 03:05:59;;;;;;;;;;;20.40;99.90;;;;;;5051852;28;19995;-73
2022/03/14 03:08:28;;;;;;;;;;;20.30;99.90;;;;;;5052599;28;19916;-73
2022/03/14 03:10:59;;;;;;;;;;;20.10;99.90;;;;;;5052788;28;20438;-73
2022/03/14 03:13:27;;;;;;;;;;;20.00;99.90;;;;;;5052558;28;19909;-74
2022/03/14 03:15:54;;;;;;;;;;;20.00;99.90;;;;;;5052402;28;19917;-73
2022/03/14 03:18:24;;;;;;;;;;;20.00;99.90;;;;;;5052182;28;20236;-72
2022/03/14 03:20:51;;;;;;;;;;;19.90;99.90;;;;;;5052315;28;19909;-71
2022/03/14 03:23:19;;;;;;;;;;;19.90;99.90;;;;;;5052394;28;20378;-72
2022/03/14 03:25:45;;;;;;;;;;;19.80;99.90;;;;;;5052597;28;19916;-72
2022/03/14 03:28:12;;;;;;;;;;;19.60;99.90;;;;;;5052142;28;19916;-72
2022/03/14 03:30:38;;;;;;;;;;;19.60;99.90;;;;;;5052237;28;19913;-72
2022/03/14 03:33:05;;;;;;;;;;;19.60;99.90;;;;;;5052491;28;19979;-71
2022/03/14 03:35:32;;;;;;;;;;;19.50;99.90;;;;;;5052340;28;19917;-71
2022/03/14 03:38:00;;;;;;;;;;;19.40;99.90;;;;;;5052244;28;19927;-71
2022/03/14 03:40:27;;;;;;;;;;;19.40;99.90;;;;;;5052322;28;19916;-72
2022/03/14 03:42:53;;;;;;;;;;;19.50;99.90;;;;;;5052015;28;19909;-72
2022/03/14 03:45:20;;;;;;;;;;;19.50;99.90;;;;;;5051842;28;20347;-72
2022/03/14 03:47:47;;;;;;;;;;;19.50;99.90;;;;;;5052196;28;20351;-72
2022/03/14 03:50:14;;;;;;;;;;;19.40;99.90;;;;;;5051965;28;19913;-72
2022/03/14 03:52:41;;;;;;;;;;;19.40;99.90;;;;;;5051851;28;19935;-72
2022/03/14 03:55:09;;;;;;;;;;;19.30;99.90;;;;;;5051987;28;19916;-72
2022/03/14 03:57:36;;;;;;;;;;;19.50;99.90;;;;;;5052179;28;19915;-72
2022/03/14 04:00:08;;;;;;;;;;;19.50;99.90;;;;;;5051738;28;19909;-72
2022/03/14 04:02:38;;;;;;;;;;;19.50;99.90;;;;;;5051919;28;20352;-72
2022/03/14 04:05:06;;;;;;;;;;;19.50;99.90;;;;;;5051942;28;19976;-72
2022/03/14 04:07:34;;;;;;;;;;;19.50;99.90;;;;;;5051684;28;20283;-72
2022/03/14 04:10:01;;;;;;;;;;;19.40;99.90;;;;;;5051777;28;19916;-73
2022/03/14 04:12:28;;;;;;;;;;;19.50;99.90;;;;;;5051948;28;19920;-72
2022/03/14 04:14:58;;;;;;;;;;;19.70;99.90;;;;;;5052071;28;20240;-72
2022/03/14 04:17:25;;;;;;;;;;;19.70;99.90;;;;;;5055085;28;19947;-73
2022/03/14 04:19:53;;;;;;;;;;;19.80;99.90;;;;;;5055518;28;20316;-73
2022/03/14 04:22:19;;;;;;;;;;;19.90;99.90;;;;;;5055155;28;19909;-73
2022/03/14 04:24:46;;;;;;;;;;;20.00;99.90;;;;;;5055673;28;19917;-73
2022/03/14 04:27:13;;;;;;;;;;;20.00;99.90;;;;;;5055735;28;19944;-73
2022/03/14 04:29:39;;;;;;;;;;;20.00;99.90;;;;;;5055829;28;19909;-73
2022/03/14 04:32:06;;;;;;;;;;;20.10;99.90;;;;;;5055525;28;19909;-73
2022/03/14 04:34:33;;;;;;;;;;;20.30;99.90;;;;;;5055689;28;19916;-72
2022/03/14 04:37:00;;;;;;;;;;;20.10;99.90;;;;;;5055584;28;19909;-73
2022/03/14 04:39:26;;;;;;;;;;;20.10;99.90;;;;;;5055385;28;19909;-73
2022/03/14 04:41:54;;;;;;;;;;;20.20;99.90;;;;;;5055441;28;19913;-72
2022/03/14 04:44:21;;;;;;;;;;;20.40;99.90;;;;;;5055171;28;20328;-72
2022/03/14 04:46:48;;;;;;;;;;;20.40;99.90;;;;;;5055155;28;19931;-72
2022/03/14 04:49:15;;;;;;;;;;;20.60;99.90;;;;;;5055119;28;19909;-72
2022/03/14 04:51:42;;;;;;;;;;;20.70;99.90;;;;;;5055124;28;19947;-72
2022/03/14 04:54:09;;;;;;;;;;;20.60;99.90;;;;;;5054818;28;20424;-71
2022/03/14 04:56:35;;;;;;;;;;;20.60;99.90;;;;;;5055531;28;20275;-72
2022/03/14 04:59:04;;;;;;;;;;;20.60;99.90;;;;;;5055249;28;19969;-72
2022/03/14 05:01:30;;;;;;;;;;;20.70;99.90;;;;;;5054878;28;20310;-72
2022/03/14 05:03:57;;;;;;;;;;;20.70;99.90;;;;;;5054911;28;20346;-72
2022/03/14 05:06:24;;;;;;;;;;;20.70;99.90;;;;;;5054851;28;19913;-72
2022/03/14 05:08:50;;;;;;;;;;;20.80;99.90;;;;;;5054765;28;19909;-72
2022/03/14 05:11:17;;;;;;;;;;;20.80;99.90;;;;;;5054799;28;20318;-73
2022/03/14 05:13:44;;;;;;;;;;;20.70;99.90;;;;;;5054443;28;19913;-72
2022/03/14 05:16:11;;;;;;;;;;;20.70;99.90;;;;;;5054293;28;19917;-72
2022/03/14 05:18:38;;;;;;;;;;;20.80;99.90;;;;;;5054832;28;19924;-72
2022/03/14 05:21:05;;;;;;;;;;;20.90;99.90;;;;;;5054614;28;20271;-72
2022/03/14 05:23:32;;;;;;;;;;;21.00;99.90;;;;;;5054461;28;19916;-72
2022/03/14 05:25:59;;;;;;;;;;;21.00;99.90;;;;;;5054428;28;20201;-72
2022/03/14 05:28:26;;;;;;;;;;;21.00;99.90;;;;;;5053344;28;20381;-72
2022/03/14 05:30:53;;;;;;;;;;;21.10;99.90;;;;;;5054425;28;20371;-71
2022/03/14 05:33:20;;;;;;;;;;;20.90;99.90;;;;;;5054354;28;19908;-72
2022/03/14 05:35:47;;;;;;;;;;;21.00;99.90;;;;;;5036139;28;19920;-72
2022/03/14 05:38:14;;;;;;;;;;;21.10;99.90;;;;;;5054112;28;20344;-72
2022/03/14 05:40:41;;;;;;;;;;;21.10;99.90;;;;;;5054274;28;20359;-72
2022/03/14 05:43:08;;;;;;;;;;;21.20;99.90;;;;;;5054144;28;19923;-72
2022/03/14 05:45:35;;;;;;;;;;;21.20;99.90;;;;;;5054186;28;19909;-72
2022/03/14 05:48:02;;;;;;;;;;;21.40;99.90;;;;;;5054348;28;19981;-72
2022/03/14 05:50:28;;;;;;;;;;;21.60;99.90;;;;;;5053740;28;19916;-72
2022/03/14 05:52:55;;;;;;;;;;;21.70;99.90;;;;;;5051000;28;19982;-72
2022/03/14 05:55:22;;;;;;;;;;;21.80;99.90;;;;;;5051727;28;19917;-72
2022/03/14 05:57:49;;;;;;;;;;;21.80;99.90;;;;;;5051726;28;19913;-72
2022/03/14 06:00:20;;;;;;;;;;;21.90;99.90;;;;;;5051713;28;19908;-73
2022/03/14 06:03:04;;;;;;;;;;;21.90;99.90;;;;;;5051990;28;20579;-71
2022/03/14 06:05:31;;;;;;;;;;;22.00;99.90;;;;;;5051112;28;19916;-72
2022/03/14 06:07:57;;;;;;;;;;;22.00;99.90;;;;;;5051640;28;19916;-72
2022/03/14 06:10:25;;;;;;;;;;;22.00;99.90;;;;;;5051262;28;19909;-72
2022/03/14 06:12:52;;;;;;;;;;;21.90;99.90;;;;;;5051559;28;19908;-71
2022/03/14 06:15:18;;;;;;;;;;;21.90;99.90;;;;;;5051378;28;20000;-71
2022/03/14 06:17:45;;;;;;;;;;;21.90;99.90;;;;;;5051149;28;19920;-71
2022/03/14 06:20:13;;;;;;;;;;;21.90;99.90;;;;;;5051115;28;19940;-71
2022/03/14 06:22:40;;;;;;;;;;;21.90;99.90;;;;;;5050983;28;20398;-71
2022/03/14 06:25:08;;;;;;;;;;;21.80;99.90;;;;;;5051230;28;19955;-71
2022/03/14 06:27:35;;;;;;;;;;;21.80;99.90;;;;;;5051155;28;19916;-72
2022/03/14 06:30:02;;;;;;;;;;;21.80;99.90;;;;;;5050575;28;19935;-71
2022/03/14 06:32:36;;;;;;;;;;;21.80;99.90;;;;;;5051349;28;20027;-71
2022/03/14 06:35:03;;;;;;;;;;;21.80;99.90;;;;;;5050683;28;19924;-71
2022/03/14 06:37:30;;;;;;;;;;;21.80;99.90;;;;;;5050927;28;19909;-71
2022/03/14 06:39:57;;;;;;;;;;;21.80;99.90;;;;;;5050647;28;19913;-71
2022/03/14 06:42:23;;;;;;;;;;;21.80;99.90;;;;;;5050955;28;19967;-71
2022/03/14 06:44:51;;;;;;;;;;;21.80;99.90;;;;;;5050730;28;19913;-72
2022/03/14 06:47:18;;;;;;;;;;;21.80;99.90;;;;;;5050663;28;19912;-70
2022/03/14 06:49:45;;;;;;;;;;;21.70;99.90;;;;;;5050337;28;19919;-70
2022/03/14 06:52:12;;;;;;;;;;;21.70;99.90;;;;;;5050348;28;19920;-72
2022/03/14 06:54:39;;;;;;;;;;;21.70;99.90;;;;;;5050628;28;20012;-72
2022/03/14 06:57:09;;;;;;;;;;;21.60;99.90;;;;;;5050161;28;20368;-71
2022/03/14 06:59:36;;;;;;;;;;;21.60;99.90;;;;;;5050510;28;20007;-71
2022/03/14 07:02:03;;;;;;;;;;;21.60;99.90;;;;;;5050252;28;19913;-70
2022/03/14 07:04:30;;;;;;;;;;;21.50;99.90;;;;;;5050430;28;20310;-71
2022/03/14 07:07:01;;;;;;;;;;;21.50;99.90;;;;;;5050386;28;20043;-71
2022/03/14 07:09:28;;;;;;;;;;;21.40;99.90;;;;;;5050108;28;19909;-70
2022/03/14 07:11:54;;;;;;;;;;;21.40;99.90;;;;;;5050401;28;19999;-71
2022/03/14 07:14:21;;;;;;;;;;;21.40;99.90;;;;;;5050150;28;19923;-70
2022/03/14 07:16:48;;;;;;;;;;;21.30;99.90;;;;;;5050091;28;19929;-72
2022/03/14 07:19:15;;;;;;;;;;;21.30;99.90;;;;;;5032414;28;19952;-71
2022/03/14 07:21:42;;;;;;;;;;;21.30;99.90;;;;;;5050484;28;19979;-71
2022/03/14 07:24:09;;;;;;;;;;;21.20;99.90;;;;;;5049653;28;20363;-72
2022/03/14 07:26:35;;;;;;;;;;;21.20;99.90;;;;;;5050068;28;19909;-71
2022/03/14 07:29:02;;;;;;;;;;;21.20;99.90;;;;;;5050294;28;19920;-72
2022/03/14 07:31:29;;;;;;;;;;;21.20;99.90;;;;;;5050281;28;19915;-70
2022/03/14 07:33:56;;;;;;;;;;;21.20;99.90;;;;;;5050041;28;19956;-71
2022/03/14 07:36:22;;;;;;;;;;;21.10;99.90;;;;;;5049157;28;19967;-71
2022/03/14 07:38:49;;;;;;;;;;;21.00;99.90;;;;;;5050188;28;19912;-71
2022/03/14 07:41:19;;;;;;;;;;;21.00;99.90;;;;;;5047994;28;20375;-70
2022/03/14 07:43:45;;;;;;;;;;;21.10;99.90;;;;;;5049972;28;19913;-71
2022/03/14 07:46:12;;;;;;;;;;;21.10;99.90;;;;;;5049682;28;19920;-71
2022/03/14 07:48:39;;;;;;;;;;;21.10;99.90;;;;;;5049871;28;20304;-71
2022/03/14 07:51:08;;;;;;;;;;;21.10;99.90;;;;;;5051427;28;19909;-71
2022/03/14 07:53:35;;;;;;;;;;;21.10;99.90;;;;;;5054459;28;19909;-71
2022/03/14 07:56:01;;;;;;;;;;;21.10;99.90;;;;;;5053507;28;20007;-71
2022/03/14 07:58:29;;;;;;;;;;;21.10;99.90;;;;;;5053668;28;19916;-71
2022/03/14 08:00:56;;;;;;;;;;;21.10;99.90;;;;;;5053589;28;20429;-71
2022/03/14 08:03:24;;;;;;;;;;;21.10;99.90;;;;;;5053639;28;20342;-71
2022/03/14 08:05:58;;;;;;;;;;;21.00;99.90;;;;;;5054649;28;19916;-71
2022/03/14 08:08:25;;;;;;;;;;;21.00;99.90;;;;;;5055376;28;20359;-71
2022/03/14 08:10:53;;;;;;;;;;;20.90;99.90;;;;;;5055496;28;19954;-71
2022/03/14 08:13:20;;;;;;;;;;;20.90;99.90;;;;;;5055903;28;19908;-71
2022/03/14 08:15:47;;;;;;;;;;;20.90;99.90;;;;;;5055746;28;19924;-71
2022/03/14 08:18:14;;;;;;;;;;;20.90;99.90;;;;;;5055119;28;20007;-71
2022/03/14 08:20:41;;;;;;;;;;;20.80;99.90;;;;;;5055283;28;19909;-71
2022/03/14 08:23:07;;;;;;;;;;;20.70;99.90;;;;;;5055485;28;20409;-70
2022/03/14 08:25:37;;;;;;;;;;;20.70;99.90;;;;;;5055768;28;19916;-70
2022/03/14 08:28:04;;;;;;;;;;;20.70;99.90;;;;;;5054829;28;20038;-71
2022/03/14 08:30:30;;;;;;;;;;;20.60;99.90;;;;;;5055568;28;19920;-71
2022/03/14 08:32:58;;;;;;;;;;;20.60;99.90;;;;;;5055671;28;19909;-71
2022/03/14 08:35:26;;;;;;;;;;;20.60;99.90;;;;;;5055211;28;19932;-71
2022/03/14 08:37:53;;;;;;;;;;;20.60;99.90;;;;;;5055129;28;19909;-71
2022/03/14 08:40:22;;;;;;;;;;;20.60;99.90;;;;;;5054884;28;19909;-70
2022/03/14 08:42:49;;;;;;;;;;;20.60;99.90;;;;;;5054664;28;19927;-71
2022/03/14 08:45:15;;;;;;;;;;;20.60;99.90;;;;;;5055105;28;19940;-71
2022/03/14 08:47:42;;;;;;;;;;;20.60;99.90;;;;;;5055526;28;20379;-71
2022/03/14 08:50:09;;;;;;;;;;;20.60;99.90;;;;;;5054947;28;19913;-71
2022/03/14 08:52:37;;;;;;;;;;;20.60;99.90;;;;;;5055084;28;20172;-71
2022/03/14 08:55:04;;;;;;;;;;;20.60;99.90;;;;;;5054887;28;19924;-70
2022/03/14 08:57:31;;;;;;;;;;;20.50;99.90;;;;;;5054469;28;19909;-70
2022/03/14 08:59:58;;;;;;;;;;;20.50;99.90;;;;;;5054870;28;19913;-71
2022/03/14 09:02:26;;;;;;;;;;;20.50;99.90;;;;;;5053518;28;19915;-71
2022/03/14 09:04:53;;;;;;;;;;;20.50;99.90;;;;;;5053487;28;20382;-70
2022/03/14 09:07:26;;;;;;;;;;;20.50;99.90;;;;;;5052896;28;19913;-71
2022/03/14 09:09:54;;;;;;;;;;;20.60;99.90;;;;;;5052749;28;19944;-71
2022/03/14 09:12:21;;;;;;;;;;;20.50;99.90;;;;;;5051794;28;19960;-71
2022/03/14 09:14:48;;;;;;;;;;;20.50;99.90;;;;;;5052675;28;19924;-71
2022/03/14 09:17:15;;;;;;;;;;;20.50;99.90;;;;;;5052355;28;19951;-71
2022/03/14 09:19:42;;;;;;;;;;;20.50;99.90;;;;;;5051847;28;19948;-71
2022/03/14 09:22:09;;;;;;;;;;;20.50;99.90;;;;;;5052319;28;20274;-70
2022/03/14 09:24:36;;;;;;;;;;;20.50;99.90;;;;;;5052161;28;20359;-71
2022/03/14 09:27:06;;;;;;;;;;;20.50;99.90;;;;;;5051819;28;19909;-71
2022/03/14 09:29:33;;;;;;;;;;;20.50;99.90;;;;;;5052450;28;19909;-70
2022/03/14 09:32:00;;;;;;;;;;;20.50;99.90;;;;;;5052257;28;19909;-71
2022/03/14 09:34:26;;;;;;;;;;;20.50;99.90;;;;;;5052522;28;20014;-71
2022/03/14 09:36:55;;;;;;;;;;;20.50;99.90;;;;;;5052362;28;19934;-71
2022/03/14 09:39:22;;;;;;;;;;;20.50;99.90;;;;;;5052114;28;19909;-71
2022/03/14 09:41:50;;;;;;;;;;;20.50;99.90;;;;;;5051696;28;19912;-71
2022/03/14 09:44:19;;;;;;;;;;;20.50;99.90;;;;;;5051855;28;20179;-71
2022/03/14 09:46:49;;;;;;;;;;;20.50;99.90;;;;;;5051799;28;20264;-71
2022/03/14 09:49:16;;;;;;;;;;;20.50;99.90;;;;;;5051777;28;20260;-71
2022/03/14 09:51:43;;;;;;;;;;;20.40;99.90;;;;;;5051885;28;20347;-71
2022/03/14 09:54:10;;;;;;;;;;;20.40;99.90;;;;;;5051465;28;19924;-71
2022/03/14 09:56:43;;;;;;;;;;;20.30;99.90;;;;;;5051286;28;19909;-71
2022/03/14 09:59:12;;;;;;;;;;;20.30;99.90;;;;;;5051353;28;20011;-71
2022/03/14 10:01:39;;;;;;;;;;;20.30;99.90;;;;;;5051788;28;19909;-71
2022/03/14 10:04:08;;;;;;;;;;;20.30;99.90;;;;;;5051616;28;20003;-71
2022/03/14 10:06:36;;;;;;;;;;;20.30;99.90;;;;;;5051559;28;19931;-71
2022/03/14 10:09:03;;;;;;;;;;;20.30;99.90;;;;;;5051664;28;20371;-71
2022/03/14 10:11:30;;;;;;;;;;;20.20;99.90;;;;;;5050815;28;19991;-71
2022/03/14 10:13:56;;;;;;;;;;;20.20;99.90;;;;;;5051454;28;19912;-71
2022/03/14 10:16:25;;;;;;;;;;;20.20;99.90;;;;;;5051343;28;19908;-70
2022/03/14 10:18:56;;;;;;;;;;;20.20;99.90;;;;;;5051348;28;19909;-70
2022/03/14 10:21:51;;;;;;;;;;;20.30;99.90;;;;;;5051160;28;20122;-71
2022/03/14 10:24:21;;;;;;;;;;;20.30;99.90;;;;;;5049185;28;19912;-71
2022/03/14 10:26:47;;;;;;;;;;;20.30;99.90;;;;;;5051038;28;19962;-72
2022/03/14 10:29:14;;;;;;;;;;;20.20;99.90;;;;;;5051208;28;19916;-72
2022/03/14 10:31:42;;;;;;;;;;;20.30;99.90;;;;;;5051311;28;19948;-72
2022/03/14 10:34:11;;;;;;;;;;;20.30;99.90;;;;;;5050786;28;19913;-71
2022/03/14 10:36:39;;;;;;;;;;;20.30;99.90;;;;;;5050916;28;19916;-72
2022/03/14 10:39:34;;;;;;;;;;;20.30;99.90;;;;;;5050060;28;20367;-72
2022/03/14 10:42:04;;;;;;;;;;;20.30;99.90;;;;;;5030064;28;19967;-72
2022/03/14 10:44:31;;;;;;;;;;;20.30;99.90;;;;;;5051263;28;19920;-72
2022/03/14 10:46:59;;;;;;;;;;;20.30;99.90;;;;;;5050828;28;19913;-72
2022/03/14 10:49:29;;;;;;;;;;;20.20;99.90;;;;;;5050596;28;19915;-72
2022/03/14 10:51:57;;;;;;;;;;;20.20;99.90;;;;;;5050912;28;19991;-72
2022/03/14 10:55:00;;;;;;;;;;;20.20;99.90;;;;;;5050560;28;19917;-72
2022/03/14 10:57:30;;;;;;;;;;;20.20;99.90;;;;;;5050752;28;19908;-72
2022/03/14 10:59:57;;;;;;;;;;;20.20;99.90;;;;;;5050918;28;19937;-72
2022/03/14 11:02:25;;;;;;;;;;;20.30;99.90;;;;;;5050104;28;19916;-72
2022/03/14 11:04:58;;;;;;;;;;;20.30;99.90;;;;;;5050608;28;20617;-72
2022/03/14 11:07:26;;;;;;;;;;;20.40;99.90;;;;;;5050806;28;19995;-72
2022/03/14 11:09:56;;;;;;;;;;;20.40;99.90;;;;;;5050513;28;19908;-71
2022/03/14 11:12:23;;;;;;;;;;;20.40;99.90;;;;;;5050314;28;20378;-72
2022/03/14 11:15:00;;;;;;;;;;;20.50;99.90;;;;;;5050416;28;19917;-72
2022/03/14 11:17:28;;;;;;;;;;;20.50;99.90;;;;;;5049947;28;19921;-72
2022/03/14 11:19:55;;;;;;;;;;;20.50;99.90;;;;;;5050229;28;20330;-71
2022/03/14 11:22:22;;;;;;;;;;;20.50;99.90;;;;;;5050089;28;19962;-71
2022/03/14 11:24:53;;;;;;;;;;;20.50;99.90;;;;;;5050244;28;19970;-70
2022/03/14 11:27:26;;;;;;;;;;;20.60;99.90;;;;;;5049975;28;20509;-71
2022/03/14 11:30:04;;;;;;;;;;;20.60;99.90;;;;;;5049817;28;19913;-71
2022/03/14 11:32:31;;;;;;;;;;;20.60;99.90;;;;;;5050416;28;19932;-72
2022/03/14 11:34:59;;;;;;;;;;;20.60;99.90;;;;;;5049874;28;20012;-71
2022/03/14 11:37:28;;;;;;;;;;;20.60;99.90;;;;;;5050195;28;19920;-71
2022/03/14 11:39:56;;;;;;;;;;;20.60;99.90;;;;;;5050186;28;19915;-72
2022/03/14 11:42:23;;;;;;;;;;;20.50;99.90;;;;;;5049725;28;19952;-71
2022/03/14 11:44:50;;;;;;;;;;;20.50;99.90;;;;;;5050319;28;19966;-71
2022/03/14 11:47:19;;;;;;;;;;;20.60;99.90;;;;;;5050167;28;19919;-72
2022/03/14 11:49:46;;;;;;;;;;;20.60;99.90;;;;;;5050070;28;19909;-71
2022/03/14 11:52:19;;;;;;;;;;;20.50;99.90;;;;;;5050060;28;19931;-71
2022/03/14 11:54:49;;;;;;;;;;;20.50;99.90;;;;;;5051101;28;19917;-71
2022/03/14 11:57:34;;;;;;;;;;;20.50;99.90;;;;;;5050179;28;19935;-71
2022/03/14 12:00:20;;;;;;;;;;;20.50;99.90;;;;;;5050011;28;19909;-71
2022/03/14 12:02:47;;;;;;;;;;;20.50;99.90;;;;;;5050262;28;19920;-71
2022/03/14 12:05:14;;;;;;;;;;;20.50;99.90;;;;;;5049784;28;19913;-72
2022/03/14 12:07:40;;;;;;;;;;;20.50;99.90;;;;;;5049788;28;20402;-71
2022/03/14 12:10:28;;;;;;;;;;;20.50;99.90;;;;;;5048973;28;19936;-71
2022/03/14 12:12:55;;;;;;;;;;;20.50;99.90;;;;;;5049876;28;19962;-71
2022/03/14 12:15:37;;;;;;;;;;;20.50;99.90;;;;;;5049960;28;19917;-72
2022/03/14 12:18:22;;;;;;;;;;;20.50;99.90;;;;;;5049808;28;19924;-71
2022/03/14 12:20:50;;;;;;;;;;;20.50;99.90;;;;;;5049568;28;20374;-72
2022/03/14 12:23:23;;;;;;;;;;;20.40;99.90;;;;;;5049892;28;20400;-71
2022/03/14 12:25:49;;;;;;;;;;;20.40;99.90;;;;;;5049821;28;19908;-71
2022/03/14 12:28:27;;;;;;;;;;;20.40;99.90;;;;;;5049759;28;19909;-71
2022/03/14 12:30:58;;;;;;;;;;;20.40;99.90;;;;;;5049890;28;19912;-71
2022/03/14 12:33:34;;;;;;;;;;;20.40;99.90;;;;;;5049651;28;19909;-71
2022/03/14 12:36:19;;;;;;;;;;;20.50;99.90;;;;;;5049565;28;19917;-71
2022/03/14 12:39:04;;;;;;;;;;;20.50;99.90;;;;;;5053428;28;19974;-72
2022/03/14 12:41:31;;;;;;;;;;;20.60;99.90;;;;;;5053491;28;19909;-71
2022/03/14 12:43:58;;;;;;;;;;;20.60;99.90;;;;;;5053323;28;19909;-72
2022/03/14 12:46:26;;;;;;;;;;;20.50;99.90;;;;;;5053356;28;19908;-71
2022/03/14 12:48:54;;;;;;;;;;;20.50;99.90;;;;;;5052812;28;19909;-72
2022/03/14 12:51:24;;;;;;;;;;;20.50;99.90;;;;;;5053322;28;20364;-71
2022/03/14 12:53:51;;;;;;;;;;;20.40;99.90;;;;;;5053203;28;20322;-71
2022/03/14 12:56:22;;;;;;;;;;;20.40;99.90;;;;;;5052859;28;20359;-71
2022/03/14 12:58:59;;;;;;;;;;;20.30;99.90;;;;;;5053141;28;20751;-72
2022/03/14 13:01:27;;;;;;;;;;;20.30;99.90;;;;;;5052904;28;19909;-71
2022/03/14 13:03:54;;;;;;;;;;;20.10;99.90;;;;;;5053026;28;20371;-71
2022/03/14 13:06:31;;;;;;;;;;;20.10;99.90;;;;;;5052800;28;20383;-72
2022/03/14 13:08:59;;;;;;;;;;;20.10;99.90;;;;;;5053188;28;20046;-72
2022/03/14 13:11:33;;;;;;;;;;;20.10;99.90;;;;;;5034957;28;19995;-72
2022/03/14 13:14:10;;;;;;;;;;;20.10;99.90;;;;;;5052441;28;19909;-71
2022/03/14 13:16:38;;;;;;;;;;;20.00;99.90;;;;;;5052593;28;19920;-71
2022/03/14 13:19:14;;;;;;;;;;;20.10;99.90;;;;;;5052518;28;19916;-71
2022/03/14 13:21:41;;;;;;;;;;;20.00;99.90;;;;;;5052909;28;20004;-71
2022/03/14 13:24:08;;;;;;;;;;;20.10;99.90;;;;;;5052443;28;19995;-71
2022/03/14 13:26:36;;;;;;;;;;;20.10;99.90;;;;;;5052034;28;20426;-71
2022/03/14 13:29:04;;;;;;;;;;;20.20;99.90;;;;;;5034967;28;20011;-71
2022/03/14 13:31:32;;;;;;;;;;;20.20;99.90;;;;;;5052484;28;19912;-72
2022/03/14 13:33:59;;;;;;;;;;;20.20;99.90;;;;;;5052186;28;19909;-71
2022/03/14 13:36:26;;;;;;;;;;;20.30;99.90;;;;;;5052359;28;19990;-72
2022/03/14 13:38:53;;;;;;;;;;;20.30;99.90;;;;;;5052242;28;19913;-71
2022/03/14 13:41:26;;;;;;;;;;;20.30;99.90;;;;;;5051854;28;19909;-72
2022/03/14 13:43:54;;;;;;;;;;;20.30;99.90;;;;;;5052216;28;19916;-71
2022/03/14 13:46:49;;;;;;;;;;;20.30;99.90;;;;;;5052042;28;19908;-71
2022/03/14 13:49:26;;;;;;;;;;;20.40;99.90;;;;;;5029897;28;20003;-71
2022/03/14 13:52:13;;;;;;;;;;;20.30;99.90;;;;;;5052147;28;19908;-71
2022/03/14 13:54:46;;;;;;;;;;;20.30;99.90;;;;;;5051670;28;19973;-71
2022/03/14 13:57:17;;;;;;;;;;;20.30;99.90;;;;;;5052014;28;20435;-71
2022/03/14 13:59:47;;;;;;;;;;;20.30;99.90;;;;;;5051847;28;19913;-71
2022/03/14 14:02:20;;;;;;;;;;;20.20;99.90;;;;;;5051604;28;19912;-71
2022/03/14 14:04:48;;;;;;;;;;;20.10;99.90;;;;;;5051844;28;19955;-71
2022/03/14 14:07:19;;;;;;;;;;;20.10;99.90;;;;;;5051233;28;19916;-71
2022/03/14 14:09:46;;;;;;;;;;;20.10;99.90;;;;;;5051713;28;20366;-71
2022/03/14 14:12:23;;;;;;;;;;;20.10;99.90;;;;;;5051665;28;19912;-71
2022/03/14 14:14:56;;;;;;;;;;;20.10;99.90;;;;;;5051537;28;19948;-71
2022/03/14 14:17:24;;;;;;;;;;;20.10;99.90;;;;;;5051256;28;19955;-71
2022/03/14 14:20:07;;;;;;;;;;;20.00;99.90;;;;;;5051246;28;19912;-71
2022/03/14 14:22:38;;;;;;;;;;;20.00;99.90;;;;;;5051527;28;19948;-71
2022/03/14 14:25:08;;;;;;;;;;;20.00;99.90;;;;;;5051585;28;19909;-71